sensor_id;sensor_type;location;lat;lon;timestamp;P1;durP1;ratioP1;P2;durP2;ratioP2
75603;SDS011;64187;51.010;13.792;2023-11-21T00:03:04;0.85;;;0.47;;
75603;SDS011;64187;51.010;13.792;2023-11-21T00:08:03;0.90;;;0.63;;
75603;SDS011;64187;51.010;13.792;2023-11-21T00:13:03;1.58;;;0.80;;
75603;SDS011;64187;51.010;13.792;2023-11-21T00:18:02;1.88;;;0.90;;
75603;SDS011;64187;51.010;13.792;2023-11-21T00:23:01;1.55;;;0.70;;
75603;SDS011;64187;51.010;13.792;2023-11-21T00:28:00;4.55;;;1.30;;
75603;SDS011;64187;51.010;13.792;2023-11-21T00:33:00;3.13;;;1.00;;
75603;SDS011;64187;51.010;13.792;2023-11-21T00:37:59;2.20;;;1.00;;
75603;SDS011;64187;51.010;13.792;2023-11-21T00:42:58;1.80;;;0.73;;
75603;SDS011;64187;51.010;13.792;2023-11-21T00:47:57;1.80;;;1.00;;
75603;SDS011;64187;51.010;13.792;2023-11-21T00:52:58;2.25;;;0.80;;
75603;SDS011;64187;51.010;13.792;2023-11-21T00:57:56;1.83;;;0.95;;
75603;SDS011;64187;51.010;13.792;2023-11-21T01:02:56;1.70;;;0.85;;
75603;SDS011;64187;51.010;13.792;2023-11-21T01:07:56;2.80;;;1.00;;
75603;SDS011;64187;51.010;13.792;2023-11-21T01:12:55;2.63;;;0.90;;
75603;SDS011;64187;51.010;13.792;2023-11-21T01:17:54;1.85;;;1.20;;
75603;SDS011;64187;51.010;13.792;2023-11-21T01:22:53;3.55;;;1.80;;
75603;SDS011;64187;51.010;13.792;2023-11-21T01:27:52;1.77;;;1.02;;
75603;SDS011;64187;51.010;13.792;2023-11-21T01:32:51;1.67;;;0.88;;
75603;SDS011;64187;51.010;13.792;2023-11-21T01:37:50;3.42;;;1.20;;
75603;SDS011;64187;51.010;13.792;2023-11-21T01:42:49;3.17;;;1.02;;
75603;SDS011;64187;51.010;13.792;2023-11-21T01:47:48;1.30;;;1.00;;
75603;SDS011;64187;51.010;13.792;2023-11-21T01:52:47;3.08;;;1.17;;
75603;SDS011;64187;51.010;13.792;2023-11-21T01:57:47;3.83;;;1.13;;
75603;SDS011;64187;51.010;13.792;2023-11-21T02:02:47;1.75;;;0.82;;
75603;SDS011;64187;51.010;13.792;2023-11-21T02:07:47;1.38;;;0.73;;
75603;SDS011;64187;51.010;13.792;2023-11-21T02:12:51;2.00;;;1.10;;
75603;SDS011;64187;51.010;13.792;2023-11-21T02:17:52;1.90;;;0.90;;
75603;SDS011;64187;51.010;13.792;2023-11-21T02:22:53;2.25;;;0.98;;
75603;SDS011;64187;51.010;13.792;2023-11-21T02:27:58;3.40;;;1.15;;
75603;SDS011;64187;51.010;13.792;2023-11-21T02:32:59;3.33;;;1.20;;
75603;SDS011;64187;51.010;13.792;2023-11-21T02:38:00;3.40;;;1.00;;
75603;SDS011;64187;51.010;13.792;2023-11-21T02:42:59;3.30;;;0.90;;
75603;SDS011;64187;51.010;13.792;2023-11-21T02:47:58;3.25;;;0.80;;
75603;SDS011;64187;51.010;13.792;2023-11-21T02:52:57;3.38;;;0.88;;
75603;SDS011;64187;51.010;13.792;2023-11-21T02:57:58;2.97;;;0.80;;
75603;SDS011;64187;51.010;13.792;2023-11-21T03:02:58;2.85;;;0.93;;
75603;SDS011;64187;51.010;13.792;2023-11-21T03:07:57;1.80;;;1.00;;
75603;SDS011;64187;51.010;13.792;2023-11-21T03:12:57;4.18;;;1.00;;
75603;SDS011;64187;51.010;13.792;2023-11-21T03:17:56;3.90;;;1.30;;
75603;SDS011;64187;51.010;13.792;2023-11-21T03:22:55;2.17;;;1.13;;
75603;SDS011;64187;51.010;13.792;2023-11-21T03:27:54;2.75;;;1.20;;
75603;SDS011;64187;51.010;13.792;2023-11-21T03:32:53;2.95;;;1.08;;
75603;SDS011;64187;51.010;13.792;2023-11-21T03:37:52;1.85;;;0.77;;
75603;SDS011;64187;51.010;13.792;2023-11-21T03:42:51;4.93;;;0.95;;
75603;SDS011;64187;51.010;13.792;2023-11-21T03:47:51;2.38;;;0.85;;
75603;SDS011;64187;51.010;13.792;2023-11-21T03:52:50;3.20;;;1.30;;
75603;SDS011;64187;51.010;13.792;2023-11-21T03:57:49;2.90;;;1.02;;
75603;SDS011;64187;51.010;13.792;2023-11-21T04:02:50;4.10;;;1.10;;
75603;SDS011;64187;51.010;13.792;2023-11-21T04:07:50;2.05;;;1.00;;
75603;SDS011;64187;51.010;13.792;2023-11-21T04:12:49;2.88;;;1.20;;
75603;SDS011;64187;51.010;13.792;2023-11-21T04:17:48;4.97;;;2.20;;
75603;SDS011;64187;51.010;13.792;2023-11-21T04:22:47;2.65;;;1.10;;
75603;SDS011;64187;51.010;13.792;2023-11-21T04:27:48;4.57;;;1.13;;
75603;SDS011;64187;51.010;13.792;2023-11-21T04:32:47;1.98;;;1.17;;
75603;SDS011;64187;51.010;13.792;2023-11-21T04:37:46;5.57;;;1.23;;
75603;SDS011;64187;51.010;13.792;2023-11-21T04:42:46;3.65;;;0.95;;
75603;SDS011;64187;51.010;13.792;2023-11-21T04:47:45;4.18;;;1.73;;
75603;SDS011;64187;51.010;13.792;2023-11-21T04:52:44;5.95;;;1.63;;
75603;SDS011;64187;51.010;13.792;2023-11-21T04:57:43;3.30;;;1.60;;
75603;SDS011;64187;51.010;13.792;2023-11-21T05:02:42;4.15;;;1.40;;
75603;SDS011;64187;51.010;13.792;2023-11-21T05:07:42;4.20;;;1.95;;
75603;SDS011;64187;51.010;13.792;2023-11-21T05:12:41;5.32;;;1.90;;
75603;SDS011;64187;51.010;13.792;2023-11-21T05:17:41;5.78;;;1.67;;
75603;SDS011;64187;51.010;13.792;2023-11-21T05:22:41;4.80;;;2.35;;
75603;SDS011;64187;51.010;13.792;2023-11-21T05:27:40;5.38;;;2.50;;
75603;SDS011;64187;51.010;13.792;2023-11-21T05:32:39;3.58;;;1.90;;
75603;SDS011;64187;51.010;13.792;2023-11-21T05:37:42;6.22;;;1.98;;
75603;SDS011;64187;51.010;13.792;2023-11-21T05:42:41;7.75;;;2.33;;
75603;SDS011;64187;51.010;13.792;2023-11-21T05:47:44;5.60;;;2.28;;
75603;SDS011;64187;51.010;13.792;2023-11-21T05:52:45;4.88;;;2.25;;
75603;SDS011;64187;51.010;13.792;2023-11-21T05:57:45;3.42;;;1.95;;
75603;SDS011;64187;51.010;13.792;2023-11-21T06:02:44;8.00;;;2.08;;
75603;SDS011;64187;51.010;13.792;2023-11-21T06:07:43;4.45;;;2.38;;
75603;SDS011;64187;51.010;13.792;2023-11-21T06:12:43;4.40;;;2.40;;
75603;SDS011;64187;51.010;13.792;2023-11-21T06:17:42;9.75;;;2.85;;
75603;SDS011;64187;51.010;13.792;2023-11-21T06:22:43;7.25;;;3.17;;
75603;SDS011;64187;51.010;13.792;2023-11-21T06:27:43;5.60;;;3.30;;
75603;SDS011;64187;51.010;13.792;2023-11-21T06:32:46;4.50;;;2.75;;
75603;SDS011;64187;51.010;13.792;2023-11-21T06:37:46;6.32;;;2.47;;
75603;SDS011;64187;51.010;13.792;2023-11-21T06:42:48;7.70;;;3.08;;
75603;SDS011;64187;51.010;13.792;2023-11-21T06:47:49;6.93;;;2.78;;
75603;SDS011;64187;51.010;13.792;2023-11-21T06:52:48;9.30;;;3.10;;
75603;SDS011;64187;51.010;13.792;2023-11-21T06:57:47;6.30;;;2.72;;
75603;SDS011;64187;51.010;13.792;2023-11-21T07:02:46;6.95;;;2.55;;
75603;SDS011;64187;51.010;13.792;2023-11-21T07:07:45;8.07;;;3.08;;
75603;SDS011;64187;51.010;13.792;2023-11-21T07:12:44;6.32;;;2.72;;
75603;SDS011;64187;51.010;13.792;2023-11-21T07:17:44;9.48;;;3.33;;
75603;SDS011;64187;51.010;13.792;2023-11-21T07:22:43;8.40;;;2.55;;
75603;SDS011;64187;51.010;13.792;2023-11-21T07:27:42;9.23;;;3.20;;
75603;SDS011;64187;51.010;13.792;2023-11-21T07:32:41;6.00;;;2.80;;
75603;SDS011;64187;51.010;13.792;2023-11-21T07:37:40;7.53;;;3.35;;
75603;SDS011;64187;51.010;13.792;2023-11-21T07:42:39;10.80;;;2.88;;
75603;SDS011;64187;51.010;13.792;2023-11-21T07:47:38;7.57;;;3.00;;
75603;SDS011;64187;51.010;13.792;2023-11-21T07:52:38;7.30;;;2.78;;
75603;SDS011;64187;51.010;13.792;2023-11-21T07:57:37;7.95;;;3.65;;
75603;SDS011;64187;51.010;13.792;2023-11-21T08:02:36;6.72;;;3.47;;
75603;SDS011;64187;51.010;13.792;2023-11-21T08:07:35;5.50;;;3.35;;
75603;SDS011;64187;51.010;13.792;2023-11-21T08:12:34;8.00;;;3.45;;
75603;SDS011;64187;51.010;13.792;2023-11-21T08:17:33;8.13;;;4.00;;
75603;SDS011;64187;51.010;13.792;2023-11-21T08:22:32;8.52;;;3.78;;
75603;SDS011;64187;51.010;13.792;2023-11-21T08:27:30;16.52;;;3.90;;
75603;SDS011;64187;51.010;13.792;2023-11-21T08:32:29;11.63;;;4.13;;
75603;SDS011;64187;51.010;13.792;2023-11-21T08:37:31;9.40;;;4.10;;
75603;SDS011;64187;51.010;13.792;2023-11-21T08:42:31;11.13;;;4.22;;
75603;SDS011;64187;51.010;13.792;2023-11-21T08:47:31;11.48;;;4.85;;
75603;SDS011;64187;51.010;13.792;2023-11-21T08:52:31;10.80;;;4.47;;
75603;SDS011;64187;51.010;13.792;2023-11-21T08:57:30;12.75;;;4.68;;
75603;SDS011;64187;51.010;13.792;2023-11-21T09:02:29;12.38;;;4.72;;
75603;SDS011;64187;51.010;13.792;2023-11-21T09:07:28;14.27;;;4.68;;
75603;SDS011;64187;51.010;13.792;2023-11-21T09:12:27;13.60;;;5.15;;
75603;SDS011;64187;51.010;13.792;2023-11-21T09:17:26;10.38;;;4.90;;
75603;SDS011;64187;51.010;13.792;2023-11-21T09:22:25;8.43;;;4.53;;
75603;SDS011;64187;51.010;13.792;2023-11-21T09:27:25;9.10;;;4.43;;
75603;SDS011;64187;51.010;13.792;2023-11-21T09:32:24;6.13;;;3.63;;
75603;SDS011;64187;51.010;13.792;2023-11-21T09:37:23;6.40;;;2.67;;
75603;SDS011;64187;51.010;13.792;2023-11-21T09:42:23;6.97;;;3.33;;
75603;SDS011;64187;51.010;13.792;2023-11-21T09:47:28;5.65;;;3.72;;
75603;SDS011;64187;51.010;13.792;2023-11-21T09:52:28;7.50;;;3.88;;
75603;SDS011;64187;51.010;13.792;2023-11-21T09:57:27;6.65;;;3.90;;
75603;SDS011;64187;51.010;13.792;2023-11-21T10:02:27;5.45;;;3.60;;
75603;SDS011;64187;51.010;13.792;2023-11-21T10:07:31;4.90;;;3.25;;
75603;SDS011;64187;51.010;13.792;2023-11-21T10:12:33;3.45;;;1.92;;
75603;SDS011;64187;51.010;13.792;2023-11-21T10:17:35;3.63;;;1.73;;
75603;SDS011;64187;51.010;13.792;2023-11-21T10:22:42;3.45;;;2.35;;
75603;SDS011;64187;51.010;13.792;2023-11-21T10:27:42;5.72;;;3.53;;
75603;SDS011;64187;51.010;13.792;2023-11-21T10:32:41;5.25;;;3.60;;
75603;SDS011;64187;51.010;13.792;2023-11-21T10:37:42;7.68;;;4.80;;
75603;SDS011;64187;51.010;13.792;2023-11-21T10:42:43;8.57;;;4.55;;
75603;SDS011;64187;51.010;13.792;2023-11-21T10:47:44;5.70;;;4.05;;
75603;SDS011;64187;51.010;13.792;2023-11-21T10:52:44;7.13;;;4.30;;
75603;SDS011;64187;51.010;13.792;2023-11-21T10:57:46;6.88;;;4.20;;
75603;SDS011;64187;51.010;13.792;2023-11-21T11:02:51;7.53;;;4.25;;
75603;SDS011;64187;51.010;13.792;2023-11-21T11:08:04;8.02;;;4.88;;
75603;SDS011;64187;51.010;13.792;2023-11-21T11:13:06;8.82;;;4.95;;
75603;SDS011;64187;51.010;13.792;2023-11-21T11:18:06;5.78;;;3.67;;
75603;SDS011;64187;51.010;13.792;2023-11-21T11:23:10;8.68;;;3.92;;
75603;SDS011;64187;51.010;13.792;2023-11-21T11:28:29;8.13;;;3.95;;
75603;SDS011;64187;51.010;13.792;2023-11-21T11:33:59;7.38;;;3.58;;
75603;SDS011;64187;51.010;13.792;2023-11-21T11:39:28;5.53;;;3.05;;
75603;SDS011;64187;51.010;13.792;2023-11-21T11:49:58;5.75;;;3.60;;
75603;SDS011;64187;51.010;13.792;2023-11-21T11:55:19;7.68;;;3.53;;
75603;SDS011;64187;51.010;13.792;2023-11-21T12:00:33;7.03;;;4.00;;
75603;SDS011;64187;51.010;13.792;2023-11-21T12:05:36;7.57;;;3.50;;
75603;SDS011;64187;51.010;13.792;2023-11-21T12:10:38;5.38;;;3.35;;
75603;SDS011;64187;51.010;13.792;2023-11-21T12:15:38;7.47;;;4.18;;
75603;SDS011;64187;51.010;13.792;2023-11-21T12:20:40;7.57;;;3.70;;
75603;SDS011;64187;51.010;13.792;2023-11-21T12:25:41;6.38;;;3.63;;
75603;SDS011;64187;51.010;13.792;2023-11-21T12:30:40;7.65;;;3.90;;
75603;SDS011;64187;51.010;13.792;2023-11-21T12:35:39;6.78;;;4.57;;
75603;SDS011;64187;51.010;13.792;2023-11-21T12:40:38;7.22;;;4.07;;
75603;SDS011;64187;51.010;13.792;2023-11-21T12:45:38;10.20;;;5.45;;
75603;SDS011;64187;51.010;13.792;2023-11-21T12:50:37;6.90;;;3.63;;
75603;SDS011;64187;51.010;13.792;2023-11-21T12:55:37;7.55;;;4.80;;
75603;SDS011;64187;51.010;13.792;2023-11-21T13:00:37;7.50;;;4.70;;
75603;SDS011;64187;51.010;13.792;2023-11-21T13:05:45;7.30;;;4.38;;
75603;SDS011;64187;51.010;13.792;2023-11-21T13:10:51;8.15;;;5.10;;
75603;SDS011;64187;51.010;13.792;2023-11-21T13:15:56;7.45;;;4.78;;
75603;SDS011;64187;51.010;13.792;2023-11-21T13:21:04;6.97;;;4.22;;
75603;SDS011;64187;51.010;13.792;2023-11-21T13:26:10;7.70;;;4.70;;
75603;SDS011;64187;51.010;13.792;2023-11-21T13:31:09;8.07;;;5.32;;
75603;SDS011;64187;51.010;13.792;2023-11-21T13:36:20;8.43;;;4.78;;
75603;SDS011;64187;51.010;13.792;2023-11-21T13:41:21;7.57;;;4.43;;
75603;SDS011;64187;51.010;13.792;2023-11-21T13:46:29;7.38;;;4.53;;
75603;SDS011;64187;51.010;13.792;2023-11-21T13:51:33;8.23;;;4.82;;
75603;SDS011;64187;51.010;13.792;2023-11-21T13:56:39;7.60;;;4.57;;
75603;SDS011;64187;51.010;13.792;2023-11-21T14:01:42;12.45;;;6.22;;
75603;SDS011;64187;51.010;13.792;2023-11-21T14:06:55;17.33;;;6.22;;
75603;SDS011;64187;51.010;13.792;2023-11-21T14:11:55;9.77;;;6.07;;
75603;SDS011;64187;51.010;13.792;2023-11-21T14:16:57;15.23;;;6.50;;
75603;SDS011;64187;51.010;13.792;2023-11-21T14:21:57;13.85;;;5.90;;
75603;SDS011;64187;51.010;13.792;2023-11-21T14:26:56;9.93;;;5.20;;
75603;SDS011;64187;51.010;13.792;2023-11-21T14:31:55;9.52;;;4.45;;
75603;SDS011;64187;51.010;13.792;2023-11-21T14:36:56;10.60;;;4.97;;
75603;SDS011;64187;51.010;13.792;2023-11-21T14:41:55;7.55;;;4.30;;
75603;SDS011;64187;51.010;13.792;2023-11-21T14:46:56;8.20;;;4.88;;
75603;SDS011;64187;51.010;13.792;2023-11-21T14:51:57;10.88;;;5.68;;
75603;SDS011;64187;51.010;13.792;2023-11-21T14:56:59;9.50;;;5.07;;
75603;SDS011;64187;51.010;13.792;2023-11-21T15:01:58;8.32;;;4.13;;
75603;SDS011;64187;51.010;13.792;2023-11-21T15:06:58;8.50;;;3.95;;
75603;SDS011;64187;51.010;13.792;2023-11-21T15:11:58;8.18;;;4.07;;
75603;SDS011;64187;51.010;13.792;2023-11-21T15:17:18;5.47;;;2.92;;
75603;SDS011;64187;51.010;13.792;2023-11-21T15:22:23;4.88;;;3.13;;
75603;SDS011;64187;51.010;13.792;2023-11-21T15:27:22;9.30;;;3.25;;
75603;SDS011;64187;51.010;13.792;2023-11-21T15:32:21;4.40;;;2.95;;
75603;SDS011;64187;51.010;13.792;2023-11-21T15:37:21;4.82;;;2.70;;
75603;SDS011;64187;51.010;13.792;2023-11-21T15:42:19;5.38;;;2.88;;
75603;SDS011;64187;51.010;13.792;2023-11-21T15:47:18;5.53;;;3.15;;
75603;SDS011;64187;51.010;13.792;2023-11-21T15:52:17;5.90;;;3.60;;
75603;SDS011;64187;51.010;13.792;2023-11-21T15:57:17;3.63;;;2.60;;
75603;SDS011;64187;51.010;13.792;2023-11-21T16:02:17;5.10;;;2.60;;
75603;SDS011;64187;51.010;13.792;2023-11-21T16:07:16;5.05;;;3.00;;
75603;SDS011;64187;51.010;13.792;2023-11-21T16:12:16;5.80;;;3.70;;
75603;SDS011;64187;51.010;13.792;2023-11-21T16:17:16;4.13;;;2.72;;
75603;SDS011;64187;51.010;13.792;2023-11-21T16:22:21;4.68;;;3.15;;
75603;SDS011;64187;51.010;13.792;2023-11-21T16:27:20;4.55;;;3.30;;
75603;SDS011;64187;51.010;13.792;2023-11-21T16:32:19;3.80;;;2.55;;
75603;SDS011;64187;51.010;13.792;2023-11-21T16:37:18;6.07;;;3.00;;
75603;SDS011;64187;51.010;13.792;2023-11-21T16:42:17;3.83;;;2.50;;
75603;SDS011;64187;51.010;13.792;2023-11-21T16:47:19;3.85;;;2.47;;
75603;SDS011;64187;51.010;13.792;2023-11-21T16:52:19;4.95;;;2.63;;
75603;SDS011;64187;51.010;13.792;2023-11-21T16:57:21;2.63;;;1.42;;
75603;SDS011;64187;51.010;13.792;2023-11-21T17:02:20;2.47;;;1.50;;
75603;SDS011;64187;51.010;13.792;2023-11-21T17:07:19;2.13;;;1.10;;
75603;SDS011;64187;51.010;13.792;2023-11-21T17:12:20;0.82;;;0.40;;
75603;SDS011;64187;51.010;13.792;2023-11-21T17:17:18;1.20;;;0.75;;
75603;SDS011;64187;51.010;13.792;2023-11-21T17:22:18;1.63;;;0.80;;
75603;SDS011;64187;51.010;13.792;2023-11-21T17:27:18;1.40;;;0.93;;
75603;SDS011;64187;51.010;13.792;2023-11-21T17:32:17;1.58;;;0.88;;
75603;SDS011;64187;51.010;13.792;2023-11-21T17:37:17;2.63;;;1.13;;
75603;SDS011;64187;51.010;13.792;2023-11-21T17:42:16;2.42;;;1.40;;
75603;SDS011;64187;51.010;13.792;2023-11-21T17:47:15;2.92;;;1.30;;
75603;SDS011;64187;51.010;13.792;2023-11-21T17:52:14;2.15;;;1.40;;
75603;SDS011;64187;51.010;13.792;2023-11-21T17:57:13;3.53;;;1.33;;
75603;SDS011;64187;51.010;13.792;2023-11-21T18:02:12;1.88;;;1.25;;
75603;SDS011;64187;51.010;13.792;2023-11-21T18:07:11;2.65;;;1.65;;
75603;SDS011;64187;51.010;13.792;2023-11-21T18:12:11;2.85;;;1.63;;
75603;SDS011;64187;51.010;13.792;2023-11-21T18:17:10;2.63;;;1.70;;
75603;SDS011;64187;51.010;13.792;2023-11-21T18:22:09;3.53;;;1.60;;
75603;SDS011;64187;51.010;13.792;2023-11-21T18:27:08;1.80;;;1.50;;
75603;SDS011;64187;51.010;13.792;2023-11-21T18:32:07;1.77;;;1.25;;
75603;SDS011;64187;51.010;13.792;2023-11-21T18:37:09;2.10;;;1.33;;
75603;SDS011;64187;51.010;13.792;2023-11-21T18:42:07;3.10;;;1.38;;
75603;SDS011;64187;51.010;13.792;2023-11-21T18:47:06;4.55;;;2.55;;
75603;SDS011;64187;51.010;13.792;2023-11-21T18:52:06;4.05;;;2.20;;
75603;SDS011;64187;51.010;13.792;2023-11-21T18:57:11;2.72;;;1.40;;
75603;SDS011;64187;51.010;13.792;2023-11-21T19:02:11;1.30;;;1.20;;
75603;SDS011;64187;51.010;13.792;2023-11-21T19:07:14;2.05;;;1.10;;
75603;SDS011;64187;51.010;13.792;2023-11-21T19:12:13;2.72;;;1.40;;
75603;SDS011;64187;51.010;13.792;2023-11-21T19:17:13;2.08;;;1.02;;
75603;SDS011;64187;51.010;13.792;2023-11-21T19:22:12;2.35;;;1.23;;
75603;SDS011;64187;51.010;13.792;2023-11-21T19:27:11;2.38;;;1.40;;
75603;SDS011;64187;51.010;13.792;2023-11-21T19:32:10;2.10;;;1.38;;
75603;SDS011;64187;51.010;13.792;2023-11-21T19:37:10;1.73;;;1.40;;
75603;SDS011;64187;51.010;13.792;2023-11-21T19:42:09;2.25;;;1.00;;
75603;SDS011;64187;51.010;13.792;2023-11-21T19:47:08;1.73;;;1.40;;
75603;SDS011;64187;51.010;13.792;2023-11-21T19:52:07;2.30;;;0.93;;
75603;SDS011;64187;51.010;13.792;2023-11-21T19:57:06;1.33;;;1.02;;
75603;SDS011;64187;51.010;13.792;2023-11-21T20:02:06;2.17;;;1.15;;
75603;SDS011;64187;51.010;13.792;2023-11-21T20:07:05;1.45;;;1.08;;
75603;SDS011;64187;51.010;13.792;2023-11-21T20:12:04;2.30;;;1.27;;
75603;SDS011;64187;51.010;13.792;2023-11-21T20:17:04;2.33;;;1.52;;
75603;SDS011;64187;51.010;13.792;2023-11-21T20:22:03;2.85;;;1.67;;
75603;SDS011;64187;51.010;13.792;2023-11-21T20:27:03;1.98;;;1.50;;
75603;SDS011;64187;51.010;13.792;2023-11-21T20:32:03;2.75;;;1.52;;
75603;SDS011;64187;51.010;13.792;2023-11-21T20:37:04;3.75;;;1.63;;
75603;SDS011;64187;51.010;13.792;2023-11-21T20:42:03;2.20;;;1.38;;
75603;SDS011;64187;51.010;13.792;2023-11-21T20:47:02;2.45;;;1.77;;
75603;SDS011;64187;51.010;13.792;2023-11-21T20:52:10;3.92;;;1.77;;
75603;SDS011;64187;51.010;13.792;2023-11-21T20:57:09;1.75;;;1.48;;
75603;SDS011;64187;51.010;13.792;2023-11-21T21:02:08;1.85;;;1.30;;
75603;SDS011;64187;51.010;13.792;2023-11-21T21:07:08;2.17;;;1.40;;
75603;SDS011;64187;51.010;13.792;2023-11-21T21:12:07;1.70;;;1.40;;
75603;SDS011;64187;51.010;13.792;2023-11-21T21:17:10;2.90;;;2.13;;
75603;SDS011;64187;51.010;13.792;2023-11-21T21:22:09;4.38;;;3.30;;
75603;SDS011;64187;51.010;13.792;2023-11-21T21:27:08;3.30;;;2.10;;
75603;SDS011;64187;51.010;13.792;2023-11-21T21:32:07;4.32;;;2.70;;
75603;SDS011;64187;51.010;13.792;2023-11-21T21:37:06;4.03;;;2.78;;
75603;SDS011;64187;51.010;13.792;2023-11-21T21:42:05;4.35;;;2.88;;
75603;SDS011;64187;51.010;13.792;2023-11-21T21:47:04;4.57;;;2.83;;
75603;SDS011;64187;51.010;13.792;2023-11-21T21:52:04;4.22;;;3.13;;
75603;SDS011;64187;51.010;13.792;2023-11-21T21:57:03;4.65;;;3.55;;
75603;SDS011;64187;51.010;13.792;2023-11-21T22:02:02;6.85;;;4.97;;
75603;SDS011;64187;51.010;13.792;2023-11-21T22:07:01;4.35;;;3.38;;
75603;SDS011;64187;51.010;13.792;2023-11-21T22:12:00;4.47;;;3.10;;
75603;SDS011;64187;51.010;13.792;2023-11-21T22:17:00;5.80;;;3.47;;
75603;SDS011;64187;51.010;13.792;2023-11-21T22:21:59;5.60;;;3.88;;
75603;SDS011;64187;51.010;13.792;2023-11-21T22:26:58;5.45;;;3.67;;
75603;SDS011;64187;51.010;13.792;2023-11-21T22:31:57;6.68;;;4.20;;
75603;SDS011;64187;51.010;13.792;2023-11-21T22:36:56;7.15;;;3.88;;
75603;SDS011;64187;51.010;13.792;2023-11-21T22:41:55;6.25;;;3.90;;
75603;SDS011;64187;51.010;13.792;2023-11-21T22:46:54;5.53;;;3.88;;
75603;SDS011;64187;51.010;13.792;2023-11-21T22:51:59;7.05;;;4.45;;
75603;SDS011;64187;51.010;13.792;2023-11-21T22:56:58;6.53;;;4.28;;
75603;SDS011;64187;51.010;13.792;2023-11-21T23:01:57;7.68;;;4.43;;
75603;SDS011;64187;51.010;13.792;2023-11-21T23:06:56;8.20;;;4.75;;
75603;SDS011;64187;51.010;13.792;2023-11-21T23:11:55;5.57;;;3.50;;
75603;SDS011;64187;51.010;13.792;2023-11-21T23:16:54;6.78;;;3.92;;
75603;SDS011;64187;51.010;13.792;2023-11-21T23:21:53;6.68;;;4.50;;
75603;SDS011;64187;51.010;13.792;2023-11-21T23:26:52;6.82;;;4.63;;
75603;SDS011;64187;51.010;13.792;2023-11-21T23:31:50;7.38;;;4.72;;
75603;SDS011;64187;51.010;13.792;2023-11-21T23:36:50;8.18;;;5.10;;
75603;SDS011;64187;51.010;13.792;2023-11-21T23:41:48;8.63;;;5.07;;
75603;SDS011;64187;51.010;13.792;2023-11-21T23:46:47;9.65;;;5.15;;
75603;SDS011;64187;51.010;13.792;2023-11-21T23:51:46;8.13;;;5.07;;
75603;SDS011;64187;51.010;13.792;2023-11-21T23:56:45;8.25;;;4.82;;
